Terminal Aerodrome Forecast
Issued by NWS

Home | Current Version | Previous Version | Text Only | Print | Product List | Glossary On
Versions: 1 2 3 4 5 6 7 8 9 10 11 12 13 14
086
FTUS45 KRIW 271435 AAA
TAFBPI
TAF AMD
KBPI 271435Z 2715/2812 36014G22KT P6SM VCSH SCT060 BKN110
     FM271700 31014G24KT P6SM VCSH SCT050 BKN080
     FM272100 31015G25KT P6SM SCT080 BKN120
     FM280200 34011KT P6SM SCT100=

USA.gov is the U.S. government's official web portal to all federal, state and local government web resources and services.